Time;durP1;ratioP1;P1;durP2;ratioP2;P2;SDS_P1;SDS_P2;PMS_P1;PMS_P2;Temp;Humidity;BMP_temperature;BMP_pressure;BME280_temperature;BME280_humidity;BME280_pressure;Samples;Min_cycle;Max_cycle;Signal;HPM_P1;HPM_P2
2023/09/20 00:01:34;;;;;;;34.45;32.28;;;19.80;99.90;;;;;;5052225;28;20033;-72
2023/09/20 00:04:02;;;;;;;32.90;30.45;;;19.70;99.90;;;;;;5054562;28;20029;-72
2023/09/20 00:06:28;;;;;;;27.90;26.08;;;19.70;99.90;;;;;;5053085;28;20033;-70
2023/09/20 00:08:55;;;;;;;27.40;25.70;;;19.70;99.90;;;;;;5033556;28;20032;-70
2023/09/20 00:11:21;;;;;;;28.90;27.17;;;19.80;99.90;;;;;;5042933;28;20387;-70
2023/09/20 00:13:48;;;;;;;33.38;31.38;;;19.80;99.90;;;;;;5054303;28;20036;-71
2023/09/20 00:16:16;;;;;;;37.28;34.97;;;19.80;99.90;;;;;;5053712;28;20033;-71
2023/09/20 00:18:43;;;;;;;37.90;35.60;;;19.80;99.90;;;;;;5054300;28;20091;-73
2023/09/20 00:21:10;;;;;;;44.75;42.15;;;19.80;99.90;;;;;;5054033;28;20025;-71
2023/09/20 00:23:36;;;;;;;43.47;41.13;;;19.80;99.90;;;;;;5054663;28;20052;-70
2023/09/20 00:26:03;;;;;;;40.17;37.75;;;19.80;99.90;;;;;;5053875;28;20041;-70
2023/09/20 00:28:31;;;;;;;39.28;36.80;;;19.70;99.90;;;;;;5054434;28;20037;-71
2023/09/20 00:30:57;;;;;;;38.42;36.20;;;19.70;99.90;;;;;;5052907;28;20036;-71
2023/09/20 00:33:23;;;;;;;41.38;39.00;;;19.70;99.90;;;;;;5054346;28;20036;-71
2023/09/20 00:35:49;;;;;;;44.17;41.72;;;19.70;99.90;;;;;;5053748;28;20032;-71
2023/09/20 00:38:16;;;;;;;39.88;37.17;;;19.70;99.90;;;;;;5035810;28;20034;-71
2023/09/20 00:40:43;;;;;;;38.28;35.75;;;19.70;99.90;;;;;;5037963;28;20033;-71
2023/09/20 00:43:12;;;;;;;37.65;35.30;;;19.60;99.90;;;;;;5054120;28;20479;-71
2023/09/20 00:45:40;;;;;;;39.25;36.97;;;19.60;99.90;;;;;;5052879;28;20044;-71
2023/09/20 00:48:07;;;;;;;37.70;34.97;;;19.70;99.90;;;;;;5052820;28;20494;-71
2023/09/20 00:50:35;;;;;;;53.15;50.22;;;19.70;99.90;;;;;;5052126;28;20467;-71
2023/09/20 00:53:06;;;;;;;52.10;49.22;;;19.70;99.90;;;;;;5052141;28;20483;-72
2023/09/20 00:55:33;;;;;;;54.30;51.30;;;19.70;99.90;;;;;;5052181;28;20021;-71
2023/09/20 00:58:04;;;;;;;61.53;57.85;;;19.60;99.90;;;;;;5052402;28;20040;-71
2023/09/20 01:00:32;;;;;;;53.13;50.20;;;19.70;99.90;;;;;;5051222;28;20041;-71
2023/09/20 01:03:00;;;;;;;50.40;47.30;;;19.70;99.90;;;;;;5052018;28;20503;-71
2023/09/20 01:05:26;;;;;;;50.45;47.28;;;19.60;99.90;;;;;;5052588;28;20049;-71
2023/09/20 01:07:54;;;;;;;61.00;57.60;;;19.60;99.90;;;;;;5052082;28;20040;-71
2023/09/20 01:10:24;;;;;;;56.15;52.92;;;19.70;99.90;;;;;;5053214;28;20589;-71
2023/09/20 01:12:59;;;;;;;59.88;56.58;;;19.70;99.90;;;;;;5053059;28;20480;-71
2023/09/20 01:15:26;;;;;;;52.72;49.63;;;19.70;99.90;;;;;;5050825;28;20041;-71
2023/09/20 01:17:57;;;;;;;49.28;46.42;;;19.70;99.90;;;;;;5053907;28;20143;-71
2023/09/20 01:20:27;;;;;;;43.63;41.25;;;19.70;99.90;;;;;;5052935;28;20048;-71
2023/09/20 01:22:54;;;;;;;42.58;39.92;;;19.60;99.90;;;;;;5053104;28;20032;-71
2023/09/20 01:25:23;;;;;;;44.85;42.10;;;19.50;99.90;;;;;;5053301;28;20591;-71
2023/09/20 01:27:55;;;;;;;50.25;47.17;;;19.50;99.90;;;;;;5052806;28;20044;-72
2023/09/20 01:30:27;;;;;;;45.13;42.58;;;19.60;99.90;;;;;;5051828;28;20380;-71
2023/09/20 01:32:57;;;;;;;44.28;41.17;;;19.60;99.90;;;;;;5053400;28;20053;-71
2023/09/20 01:35:24;;;;;;;46.88;44.28;;;19.50;99.90;;;;;;5053255;28;20041;-71
2023/09/20 01:37:51;;;;;;;43.80;40.95;;;19.60;99.90;;;;;;5052876;28;20379;-71
2023/09/20 01:40:19;;;;;;;44.67;41.95;;;19.60;99.90;;;;;;5052402;28;20041;-71
2023/09/20 01:42:46;;;;;;;46.88;44.22;;;19.60;99.90;;;;;;5052512;28;20033;-71
2023/09/20 01:45:18;;;;;;;43.75;41.22;;;19.50;99.90;;;;;;5052461;28;20049;-72
2023/09/20 01:47:49;;;;;;;51.67;48.67;;;19.50;99.90;;;;;;5053050;28;20056;-72
2023/09/20 01:50:25;;;;;;;59.95;56.55;;;19.50;99.90;;;;;;5051146;28;20623;-71
2023/09/20 01:52:52;;;;;;;49.50;46.65;;;19.60;99.90;;;;;;5052658;28;20033;-72
2023/09/20 01:55:22;;;;;;;57.22;53.97;;;19.50;99.90;;;;;;5052149;28;20021;-72
2023/09/20 01:57:49;;;;;;;77.10;72.78;;;19.50;99.90;;;;;;5052100;28;20028;-72
2023/09/20 02:00:18;;;;;;;70.72;66.60;;;19.60;99.90;;;;;;5051701;28;20387;-72
2023/09/20 02:02:44;;;;;;;64.55;61.05;;;19.50;99.90;;;;;;5052912;28;20036;-72
2023/09/20 02:05:14;;;;;;;70.32;66.68;;;19.50;99.90;;;;;;5052188;28;20104;-72
2023/09/20 02:07:41;;;;;;;61.78;58.40;;;19.40;99.90;;;;;;5052720;28;20053;-72
2023/09/20 02:10:08;;;;;;;60.67;56.92;;;19.50;99.90;;;;;;5051957;28;20048;-71
2023/09/20 02:12:37;;;;;;;68.20;64.47;;;19.50;99.90;;;;;;5052319;28;20048;-72
2023/09/20 02:15:07;;;;;;;57.42;54.33;;;19.50;99.90;;;;;;5051794;28;20041;-70
2023/09/20 02:17:35;;;;;;;56.20;52.77;;;19.50;99.90;;;;;;5052080;28;20042;-72
2023/09/20 02:20:08;;;;;;;51.92;49.13;;;19.40;99.90;;;;;;5052557;28;20266;-71
2023/09/20 02:22:36;;;;;;;44.05;41.65;;;19.50;99.90;;;;;;5052177;28;20483;-72
2023/09/20 02:25:10;;;;;;;55.63;52.50;;;19.50;99.90;;;;;;5052353;28;20044;-71
2023/09/20 02:27:38;;;;;;;64.03;60.47;;;19.50;99.90;;;;;;5052280;28;20053;-72
2023/09/20 02:30:06;;;;;;;43.92;41.05;;;19.40;99.90;;;;;;5051706;28;20034;-72
2023/09/20 02:32:32;;;;;;;46.40;43.88;;;19.40;99.90;;;;;;5049695;28;20041;-72
2023/09/20 02:35:00;;;;;;;72.38;68.63;;;19.50;99.90;;;;;;5052103;28;20032;-71
2023/09/20 02:37:26;;;;;;;51.40;48.22;;;19.40;99.90;;;;;;5040914;28;20119;-71
2023/09/20 02:39:52;;;;;;;52.53;49.58;;;19.50;99.90;;;;;;5032098;28;20378;-71
2023/09/20 02:42:22;;;;;;;66.60;62.78;;;19.50;99.90;;;;;;5048759;28;20033;-72
2023/09/20 02:44:50;;;;;;;65.00;61.50;;;19.50;99.90;;;;;;5052104;28;20052;-71
2023/09/20 02:47:18;;;;;;;67.00;63.38;;;19.60;99.90;;;;;;5051400;28;20059;-72
2023/09/20 02:49:48;;;;;;;79.55;75.10;;;19.50;99.90;;;;;;5052022;28;20021;-72
2023/09/20 02:52:17;;;;;;;59.10;55.75;;;19.50;99.90;;;;;;5051883;28;20048;-72
2023/09/20 02:54:43;;;;;;;81.10;76.57;;;19.50;99.90;;;;;;5052400;28;20042;-72
2023/09/20 02:57:11;;;;;;;194.07;183.95;;;19.50;99.90;;;;;;5051129;28;20040;-72
2023/09/20 02:59:38;;;;;;;84.57;80.07;;;19.60;99.90;;;;;;5052064;28;20041;-72
2023/09/20 03:02:05;;;;;;;74.88;70.90;;;19.50;99.90;;;;;;5051111;28;20518;-71
2023/09/20 03:04:32;;;;;;;91.63;86.50;;;19.50;99.90;;;;;;5052141;28;20044;-72
2023/09/20 03:06:58;;;;;;;70.55;66.43;;;19.40;99.90;;;;;;5051267;28;20029;-71
2023/09/20 03:09:24;;;;;;;73.75;69.47;;;19.40;99.90;;;;;;5051880;28;20056;-69
2023/09/20 03:11:51;;;;;;;68.82;64.93;;;19.40;99.90;;;;;;5049853;28;20033;-69
2023/09/20 03:14:17;;;;;;;43.95;41.45;;;19.40;99.90;;;;;;5051681;28;20064;-69
2023/09/20 03:16:44;;;;;;;58.85;55.60;;;19.40;99.90;;;;;;5049667;28;20492;-69
2023/09/20 03:19:14;;;;;;;62.60;59.00;;;19.40;99.90;;;;;;5051801;28;20383;-69
2023/09/20 03:21:41;;;;;;;65.35;61.72;;;19.40;99.90;;;;;;5051096;28;20378;-69
2023/09/20 03:24:07;;;;;;;56.28;52.95;;;19.40;99.90;;;;;;5050188;28;20044;-65
2023/09/20 03:26:35;;;;;;;45.97;43.58;;;19.40;99.90;;;;;;5049952;28;20442;-69
2023/09/20 03:29:03;;;;;;;41.40;39.08;;;19.40;99.90;;;;;;5051674;28;20021;-69
2023/09/20 03:31:31;;;;;;;39.30;37.20;;;19.40;99.90;;;;;;5048760;28;20040;-69
2023/09/20 03:33:59;;;;;;;50.85;48.03;;;19.40;99.90;;;;;;5051671;28;20383;-70
2023/09/20 03:36:26;;;;;;;66.55;62.92;;;19.40;99.90;;;;;;5050889;28;20028;-70
2023/09/20 03:38:55;;;;;;;89.20;84.53;;;19.40;99.90;;;;;;5051163;28;20484;-70
2023/09/20 03:41:21;;;;;;;75.28;71.30;;;19.50;99.90;;;;;;5051101;28;20029;-69
2023/09/20 03:43:47;;;;;;;74.75;70.78;;;19.50;99.90;;;;;;5051106;28;20047;-70
2023/09/20 03:46:13;;;;;;;60.72;57.33;;;19.40;99.90;;;;;;5054136;28;20040;-69
2023/09/20 03:48:39;;;;;;;96.47;91.38;;;19.40;99.90;;;;;;5053831;28;20033;-70
2023/09/20 03:51:07;;;;;;;93.32;88.70;;;19.40;99.90;;;;;;5053308;28;20399;-69
2023/09/20 03:53:35;;;;;;;87.25;82.53;;;19.40;99.90;;;;;;5053184;28;20044;-70
2023/09/20 03:56:02;;;;;;;89.32;83.90;;;19.40;99.90;;;;;;5054679;28;20055;-69
2023/09/20 03:58:28;;;;;;;80.70;76.50;;;19.40;99.90;;;;;;5054685;28;20028;-69
2023/09/20 04:00:56;;;;;;;96.25;91.00;;;19.40;99.90;;;;;;5053980;28;20510;-70
2023/09/20 04:03:22;;;;;;;90.20;85.00;;;19.40;99.90;;;;;;5053072;28;20407;-71
2023/09/20 04:05:50;;;;;;;85.68;80.88;;;19.40;99.90;;;;;;5054393;28;20025;-69
2023/09/20 04:08:18;;;;;;;92.57;87.68;;;19.30;99.90;;;;;;5053982;28;20676;-70
2023/09/20 04:10:44;;;;;;;69.80;65.72;;;19.30;99.90;;;;;;5054254;28;20387;-70
2023/09/20 04:13:10;;;;;;;84.45;79.47;;;19.20;99.90;;;;;;5053314;28;20036;-69
2023/09/20 04:15:40;;;;;;;49.10;46.38;;;19.30;99.90;;;;;;5053532;28;20407;-73
2023/09/20 04:18:08;;;;;;;82.28;78.07;;;19.20;99.90;;;;;;5054794;28;20047;-73
2023/09/20 04:20:34;;;;;;;52.63;49.50;;;19.20;99.90;;;;;;5053976;28;20036;-73
2023/09/20 04:23:01;;;;;;;89.50;84.57;;;19.20;99.90;;;;;;5054136;28;20041;-73
2023/09/20 04:25:27;;;;;;;85.53;80.75;;;19.20;99.90;;;;;;5054031;28;20037;-73
2023/09/20 04:27:53;;;;;;;46.35;43.90;;;19.10;99.90;;;;;;5054211;28;20055;-73
2023/09/20 04:30:19;;;;;;;54.33;51.33;;;19.00;99.90;;;;;;5053306;28;20025;-73
2023/09/20 04:32:45;;;;;;;95.70;90.72;;;19.00;99.90;;;;;;5054157;28;20048;-73
2023/09/20 04:35:11;;;;;;;82.85;78.40;;;19.10;99.90;;;;;;5053699;28;20025;-73
2023/09/20 04:37:38;;;;;;;42.42;39.75;;;19.10;99.90;;;;;;5041391;28;20091;-72
2023/09/20 04:40:07;;;;;;;53.53;49.83;;;19.10;99.90;;;;;;5034044;28;20472;-72
2023/09/20 04:42:35;;;;;;;50.38;47.60;;;19.10;99.90;;;;;;5033969;28;20041;-73
2023/09/20 04:45:06;;;;;;;41.53;39.13;;;19.10;99.90;;;;;;5034141;28;20048;-73
2023/09/20 04:47:35;;;;;;;44.47;41.97;;;19.20;99.90;;;;;;5052051;28;20045;-73
2023/09/20 04:50:02;;;;;;;37.55;35.35;;;19.20;99.90;;;;;;5053931;28;20053;-72
2023/09/20 04:52:30;;;;;;;37.35;35.15;;;19.20;99.90;;;;;;5053120;28;20039;-73
2023/09/20 04:54:56;;;;;;;38.13;35.78;;;19.20;99.90;;;;;;5053676;28;20044;-73
2023/09/20 04:57:22;;;;;;;49.35;46.60;;;19.10;99.90;;;;;;5052127;28;20526;-73
2023/09/20 04:59:50;;;;;;;65.25;61.38;;;19.20;99.90;;;;;;5053641;28;20033;-72
2023/09/20 05:02:16;;;;;;;44.13;41.45;;;19.10;99.90;;;;;;5052842;28;20502;-73
2023/09/20 05:04:42;;;;;;;44.75;41.80;;;19.10;99.90;;;;;;5054026;28;20487;-72
2023/09/20 05:07:09;;;;;;;52.88;49.60;;;19.10;99.90;;;;;;5053072;28;20059;-72
2023/09/20 05:09:36;;;;;;;68.13;64.15;;;19.00;99.90;;;;;;5051995;28;20029;-72
2023/09/20 05:12:02;;;;;;;71.43;67.55;;;19.00;99.90;;;;;;5053252;28;20045;-71
2023/09/20 05:14:29;;;;;;;65.68;62.05;;;19.00;99.90;;;;;;5053333;28;20049;-72
2023/09/20 05:16:55;;;;;;;68.70;64.82;;;18.90;99.90;;;;;;5051213;28;20789;-72
2023/09/20 05:19:23;;;;;;;70.05;65.63;;;18.90;99.90;;;;;;5053383;28;20033;-72
2023/09/20 05:21:49;;;;;;;71.57;67.43;;;19.00;99.90;;;;;;5052742;28;20045;-72
2023/09/20 05:24:15;;;;;;;68.28;64.53;;;18.90;99.90;;;;;;5053283;28;20392;-72
2023/09/20 05:26:42;;;;;;;80.68;76.30;;;18.90;99.90;;;;;;5053025;28;20041;-72
2023/09/20 05:29:09;;;;;;;59.92;56.03;;;18.80;99.90;;;;;;5052720;28;20056;-72
2023/09/20 05:31:36;;;;;;;59.70;56.10;;;18.70;99.90;;;;;;5052182;28;20033;-72
2023/09/20 05:34:02;;;;;;;46.17;43.58;;;18.70;99.90;;;;;;5052941;28;20029;-71
2023/09/20 05:36:29;;;;;;;40.17;37.78;;;18.70;99.90;;;;;;5053049;28;20365;-72
2023/09/20 05:38:55;;;;;;;48.45;45.63;;;18.70;99.90;;;;;;5052789;28;20036;-72
2023/09/20 05:41:22;;;;;;;51.25;48.00;;;18.70;99.90;;;;;;5052939;28;20041;-70
2023/09/20 05:43:48;;;;;;;51.63;48.30;;;18.70;99.90;;;;;;5052859;28;20025;-71
2023/09/20 05:46:14;;;;;;;46.17;43.47;;;18.70;99.90;;;;;;5051750;28;20036;-71
2023/09/20 05:48:41;;;;;;;46.78;44.08;;;18.60;99.90;;;;;;5052879;28;20475;-72
2023/09/20 05:51:10;;;;;;;42.67;40.22;;;18.60;99.90;;;;;;5052306;28;20048;-72
2023/09/20 05:53:36;;;;;;;39.30;36.45;;;18.60;99.90;;;;;;5052765;28;20045;-71
2023/09/20 05:56:07;;;;;;;35.15;33.03;;;18.60;99.90;;;;;;5052921;28;20041;-71
2023/09/20 05:58:34;;;;;;;58.92;55.35;;;18.60;99.90;;;;;;5052811;28;20566;-72
2023/09/20 06:01:00;;;;;;;65.38;61.60;;;18.60;99.90;;;;;;5052109;28;20036;-71
2023/09/20 06:03:26;;;;;;;64.30;60.28;;;18.60;99.90;;;;;;5052883;28;20377;-71
2023/09/20 06:05:53;;;;;;;55.60;52.55;;;18.60;99.90;;;;;;5051299;28;20025;-71
2023/09/20 06:08:20;;;;;;;44.25;41.63;;;18.60;99.90;;;;;;5052148;28;20053;-71
2023/09/20 06:10:46;;;;;;;50.50;47.33;;;18.60;99.90;;;;;;5052458;28;20033;-71
2023/09/20 06:13:12;;;;;;;56.72;53.33;;;18.60;99.90;;;;;;5052190;28;20376;-71
2023/09/20 06:15:39;;;;;;;68.40;64.75;;;18.60;99.90;;;;;;5051519;28;20056;-71
2023/09/20 06:18:06;;;;;;;60.03;56.53;;;18.60;99.90;;;;;;5052806;28;20033;-72
2023/09/20 06:20:33;;;;;;;64.63;60.63;;;18.60;99.90;;;;;;5052040;28;20055;-72
2023/09/20 06:22:59;;;;;;;61.38;57.63;;;18.70;99.90;;;;;;5052161;28;20028;-71
2023/09/20 06:25:26;;;;;;;67.90;63.88;;;18.70;99.90;;;;;;5051706;28;20075;-71
2023/09/20 06:27:53;;;;;;;56.13;52.83;;;18.70;99.90;;;;;;5052552;28;20400;-72
2023/09/20 06:30:24;;;;;;;49.03;46.08;;;18.80;99.90;;;;;;5051061;28;20052;-71
2023/09/20 06:32:50;;;;;;;45.17;42.55;;;18.80;99.90;;;;;;5051474;28;20047;-72
2023/09/20 06:35:19;;;;;;;44.15;41.55;;;18.80;99.90;;;;;;5052009;28;20029;-72
2023/09/20 06:37:49;;;;;;;46.70;43.72;;;18.80;99.90;;;;;;5038185;28;20054;-72
2023/09/20 06:40:22;;;;;;;42.92;40.17;;;18.80;99.90;;;;;;5032390;28;20364;-72
2023/09/20 06:42:51;;;;;;;34.42;32.03;;;18.90;99.90;;;;;;5050982;28;20364;-72
2023/09/20 06:45:22;;;;;;;37.08;34.63;;;18.80;99.90;;;;;;5051448;28;20434;-72
2023/09/20 06:47:49;;;;;;;46.47;43.45;;;18.80;99.90;;;;;;5051869;28;20036;-72
2023/09/20 06:50:15;;;;;;;60.30;56.78;;;18.80;99.90;;;;;;5052006;28;20033;-72
2023/09/20 06:52:45;;;;;;;73.60;69.45;;;18.90;99.90;;;;;;5052298;28;20041;-72
2023/09/20 06:55:13;;;;;;;83.93;79.38;;;18.90;99.90;;;;;;5050374;28;20040;-72
2023/09/20 06:57:40;;;;;;;76.35;71.80;;;18.80;99.90;;;;;;5050451;28;20052;-72
2023/09/20 07:00:15;;;;;;;87.07;82.22;;;18.80;99.90;;;;;;5051464;28;20041;-72
2023/09/20 07:02:42;;;;;;;76.75;72.45;;;18.70;99.90;;;;;;5052009;28;20029;-71
2023/09/20 07:05:09;;;;;;;71.82;67.97;;;18.70;99.90;;;;;;5051950;28;20375;-72
2023/09/20 07:07:36;;;;;;;64.82;61.28;;;18.70;99.90;;;;;;5051666;28;20041;-72
2023/09/20 07:10:05;;;;;;;68.32;64.32;;;18.80;99.90;;;;;;5051564;28;20387;-72
2023/09/20 07:12:34;;;;;;;52.55;49.50;;;18.80;99.90;;;;;;5051169;28;20040;-72
2023/09/20 07:15:00;;;;;;;59.97;56.67;;;18.80;99.90;;;;;;5051494;28;20595;-72
2023/09/20 07:17:26;;;;;;;64.38;60.92;;;18.80;99.90;;;;;;5050913;28;20048;-72
2023/09/20 07:19:52;;;;;;;68.72;64.95;;;18.80;99.90;;;;;;5055776;28;20040;-72
2023/09/20 07:22:21;;;;;;;50.10;47.17;;;18.80;99.90;;;;;;5054923;28;20419;-72
2023/09/20 07:24:47;;;;;;;64.55;60.63;;;18.80;99.90;;;;;;5055490;28;20174;-72
2023/09/20 07:27:13;;;;;;;44.15;41.05;;;18.90;99.90;;;;;;5055020;28;20380;-72
2023/09/20 07:29:41;;;;;;;43.72;40.92;;;19.00;99.90;;;;;;5055334;28;20035;-72
2023/09/20 07:32:08;;;;;;;39.65;37.10;;;19.20;99.90;;;;;;5054067;28;20403;-72
2023/09/20 07:34:35;;;;;;;46.25;43.53;;;19.40;99.90;;;;;;5055273;28;20033;-73
2023/09/20 07:37:02;;;;;;;46.90;44.05;;;19.60;99.90;;;;;;5053560;28;20485;-72
2023/09/20 07:39:28;;;;;;;55.42;52.22;;;19.80;99.90;;;;;;5055405;28;20048;-71
2023/09/20 07:41:58;;;;;;;58.78;55.55;;;20.20;99.90;;;;;;5053507;28;20033;-72
2023/09/20 07:44:24;;;;;;;110.68;104.63;;;20.50;99.90;;;;;;5055136;28;20458;-71
2023/09/20 07:46:54;;;;;;;120.28;114.03;;;20.70;99.90;;;;;;5052491;28;20040;-70
2023/09/20 07:49:20;;;;;;;118.15;112.10;;;21.00;99.90;;;;;;5055168;28;20048;-71
2023/09/20 07:51:48;;;;;;;150.32;142.80;;;21.30;99.90;;;;;;5033209;28;20037;-71
2023/09/20 07:54:14;;;;;;;183.93;174.70;;;21.50;99.90;;;;;;5034873;28;20025;-70
2023/09/20 07:56:49;;;;;;;220.20;209.50;;;21.70;99.90;;;;;;5046900;28;20033;-71
2023/09/20 07:59:16;;;;;;;226.68;215.80;;;21.80;99.90;;;;;;5053715;28;20032;-71
2023/09/20 08:01:43;;;;;;;249.18;237.18;;;21.90;99.90;;;;;;5052287;28;20029;-71
2023/09/20 08:04:10;;;;;;;250.07;238.20;;;22.00;99.90;;;;;;5053437;28;20036;-71
2023/09/20 08:06:37;;;;;;;242.30;230.57;;;22.10;99.90;;;;;;5053081;28;20411;-71
2023/09/20 08:09:03;;;;;;;248.57;236.57;;;22.20;99.90;;;;;;5053268;28;20052;-71
2023/09/20 08:11:30;;;;;;;258.25;245.75;;;22.20;99.90;;;;;;5057146;28;20037;-71
2023/09/20 08:13:57;;;;;;;262.30;249.80;;;22.50;99.90;;;;;;5036623;28;20053;-71
2023/09/20 08:16:23;;;;;;;269.17;256.48;;;22.60;99.90;;;;;;5052089;28;20036;-70
2023/09/20 08:21:34;;;;;;;264.65;252.07;;;22.60;99.90;;;;;;5060732;28;20084;-70
2023/09/20 09:00:07;;;;;;;309.80;294.35;;;22.60;99.90;;;;;;5059958;28;20040;-67
2023/09/20 09:02:33;;;;;;;366.20;347.70;;;22.50;99.90;;;;;;5053188;28;20040;-73
2023/09/20 09:04:59;;;;;;;366.70;348.17;;;22.50;99.90;;;;;;5053309;28;20025;-72
2023/09/20 09:07:25;;;;;;;360.85;342.33;;;22.50;99.90;;;;;;5051969;28;20033;-73
2023/09/20 09:09:52;;;;;;;363.38;345.23;;;22.50;99.90;;;;;;5053655;28;20388;-72
2023/09/20 09:12:18;;;;;;;355.35;337.58;;;22.50;99.90;;;;;;5053073;28;20484;-72
2023/09/20 09:14:48;;;;;;;380.05;360.92;;;22.50;99.90;;;;;;5053447;28;20139;-72
2023/09/20 09:17:14;;;;;;;318.23;302.30;;;22.60;99.90;;;;;;5051408;28;20395;-72
2023/09/20 09:19:40;;;;;;;312.10;296.88;;;22.60;99.90;;;;;;5052036;28;20041;-72
2023/09/20 09:22:07;;;;;;;283.73;270.08;;;22.70;99.90;;;;;;5053053;28;20041;-72
2023/09/20 09:24:59;;;;;;;269.23;256.45;;;22.60;99.90;;;;;;5053448;28;20032;-72
2023/09/20 09:27:25;;;;;;;302.13;287.67;;;22.60;99.90;;;;;;5050144;28;20507;-72
2023/09/20 09:29:51;;;;;;;252.48;240.52;;;22.70;99.90;;;;;;5053110;28;20041;-73
2023/09/20 09:32:19;;;;;;;256.80;244.70;;;22.70;99.90;;;;;;5052205;28;20033;-72
2023/09/20 09:34:45;;;;;;;278.38;264.92;;;22.70;99.90;;;;;;5052915;28;20403;-72
2023/09/20 09:37:11;;;;;;;282.38;268.80;;;22.70;99.90;;;;;;5052518;28;20037;-73
2023/09/20 09:39:39;;;;;;;278.27;265.05;;;22.70;99.90;;;;;;5052902;28;20487;-73
2023/09/20 09:42:06;;;;;;;282.25;269.05;;;22.70;99.90;;;;;;5052208;28;20048;-72
2023/09/20 09:44:52;;;;;;;308.95;294.17;;;22.70;99.90;;;;;;5051628;28;20041;-73
2023/09/20 09:47:18;;;;;;;277.83;264.33;;;22.60;99.90;;;;;;5050708;28;20037;-72
2023/09/20 09:49:46;;;;;;;296.08;281.70;;;22.60;99.90;;;;;;5051707;28;20032;-73
2023/09/20 09:52:12;;;;;;;303.77;289.30;;;22.60;99.90;;;;;;5050747;28;20518;-73
2023/09/20 09:54:38;;;;;;;295.55;281.52;;;22.70;99.90;;;;;;5052776;28;20037;-73
2023/09/20 09:57:04;;;;;;;304.48;289.67;;;22.60;99.90;;;;;;5050659;28;20028;-72
2023/09/20 09:59:30;;;;;;;285.13;271.15;;;22.60;99.90;;;;;;5052569;28;20033;-73
2023/09/20 10:01:57;;;;;;;324.48;308.92;;;22.70;99.90;;;;;;5051721;28;20037;-72
2023/09/20 10:04:23;;;;;;;385.85;366.63;;;22.70;99.90;;;;;;5052945;28;20048;-72
2023/09/20 10:07:22;;;;;;;307.55;292.75;;;22.80;99.90;;;;;;5051984;28;20045;-73
2023/09/20 10:09:52;;;;;;;311.25;296.38;;;22.90;99.90;;;;;;5047920;28;20388;-72
2023/09/20 10:12:20;;;;;;;338.33;321.92;;;23.00;99.90;;;;;;5051601;28;20395;-72
2023/09/20 10:14:46;;;;;;;343.65;326.92;;;23.00;99.90;;;;;;5034694;28;20045;-73
2023/09/20 10:17:21;;;;;;;351.77;334.88;;;23.10;99.90;;;;;;5033894;28;20036;-73
2023/09/20 10:19:53;;;;;;;303.60;289.10;;;23.10;99.90;;;;;;5052384;28;20082;-73
2023/09/20 10:22:21;;;;;;;335.85;319.38;;;23.20;99.90;;;;;;5052027;28;20041;-73
2023/09/20 10:24:58;;;;;;;357.00;339.02;;;23.20;99.90;;;;;;5050421;28;20036;-72
2023/09/20 10:27:30;;;;;;;369.02;350.65;;;23.30;99.90;;;;;;5052310;28;20044;-72
2023/09/20 10:29:58;;;;;;;258.75;246.10;;;23.40;99.90;;;;;;5052373;28;20048;-73
2023/09/20 10:32:31;;;;;;;268.63;255.77;;;23.40;99.90;;;;;;5051145;28;20060;-73
2023/09/20 10:35:18;;;;;;;315.25;299.95;;;23.40;99.90;;;;;;5052095;28;20029;-73
2023/09/20 10:38:07;;;;;;;385.80;366.45;;;23.40;99.90;;;;;;5038025;28;20050;-72
2023/09/20 10:40:45;;;;;;;301.88;287.55;;;23.30;99.90;;;;;;5031082;28;20392;-73
2023/09/20 10:43:34;;;;;;;281.60;268.27;;;23.30;99.90;;;;;;5051991;28;20036;-73
2023/09/20 10:46:07;;;;;;;301.95;287.42;;;23.40;99.90;;;;;;5048170;28;20021;-73
2023/09/20 10:48:33;;;;;;;304.30;289.50;;;23.50;99.90;;;;;;5050743;28;20051;-73
2023/09/20 10:50:59;;;;;;;307.38;292.40;;;23.50;99.90;;;;;;5050277;28;20021;-73
2023/09/20 10:53:52;;;;;;;293.83;279.98;;;23.60;99.90;;;;;;5054719;28;20464;-73
2023/09/20 10:56:51;;;;;;;305.27;290.77;;;23.60;99.90;;;;;;5055467;28;20037;-73
2023/09/20 10:59:18;;;;;;;287.75;273.95;;;23.70;99.90;;;;;;5055996;28;20037;-73
2023/09/20 11:02:04;;;;;;;270.35;257.35;;;23.80;99.90;;;;;;5053698;28;20049;-73
2023/09/20 11:04:30;;;;;;;288.45;274.33;;;23.80;99.90;;;;;;5056289;28;20052;-72
2023/09/20 11:06:59;;;;;;;286.17;272.30;;;23.80;99.90;;;;;;5055135;28;20029;-73
2023/09/20 11:09:30;;;;;;;296.40;281.95;;;23.90;99.90;;;;;;5055499;28;20040;-72
2023/09/20 11:12:09;;;;;;;320.00;304.42;;;23.80;99.90;;;;;;5055909;28;20045;-73
2023/09/20 11:14:35;;;;;;;318.50;302.90;;;23.80;99.90;;;;;;5055899;28;20051;-73
2023/09/20 11:17:02;;;;;;;311.13;296.05;;;23.80;99.90;;;;;;5054736;28;20033;-72
2023/09/20 11:19:28;;;;;;;331.58;315.33;;;23.80;99.90;;;;;;5055839;28;20052;-73
2023/09/20 11:21:56;;;;;;;310.25;295.13;;;23.80;99.90;;;;;;5055299;28;20041;-73
2023/09/20 11:24:23;;;;;;;318.50;302.92;;;23.70;99.90;;;;;;5055200;28;20044;-72
2023/09/20 11:26:49;;;;;;;326.42;310.15;;;23.70;99.90;;;;;;5054797;28;20041;-73
2023/09/20 11:29:16;;;;;;;293.20;279.05;;;23.70;99.90;;;;;;5054063;28;20052;-73
2023/09/20 11:31:44;;;;;;;317.15;301.80;;;23.70;99.90;;;;;;5053057;28;20041;-72
2023/09/20 11:34:10;;;;;;;311.20;296.00;;;23.70;99.90;;;;;;5055678;28;20037;-73
2023/09/20 11:36:43;;;;;;;313.20;297.42;;;23.70;99.90;;;;;;5054835;28;20032;-73
2023/09/20 11:39:09;;;;;;;302.05;287.27;;;23.70;99.90;;;;;;5055045;28;20033;-72
2023/09/20 11:41:37;;;;;;;296.77;282.23;;;23.80;99.90;;;;;;5054950;28;20415;-72
2023/09/20 11:44:06;;;;;;;302.35;287.45;;;23.80;99.90;;;;;;5055213;28;20025;-72
2023/09/20 11:46:35;;;;;;;301.38;286.50;;;23.80;99.90;;;;;;5054207;28;20037;-73
2023/09/20 11:49:03;;;;;;;300.38;285.80;;;23.80;99.90;;;;;;5054852;28;20032;-73
2023/09/20 11:51:30;;;;;;;303.90;289.08;;;23.80;99.90;;;;;;5054468;28;20025;-72
2023/09/20 11:53:57;;;;;;;303.48;288.67;;;23.90;99.90;;;;;;5053424;28;20028;-73
2023/09/20 11:56:29;;;;;;;293.90;279.70;;;23.90;99.90;;;;;;5054538;28;20040;-73
2023/09/20 11:58:59;;;;;;;315.25;299.70;;;24.00;99.90;;;;;;5054771;28;20049;-72
2023/09/20 12:01:26;;;;;;;302.83;287.80;;;24.10;99.90;;;;;;5054197;28;20033;-73
2023/09/20 12:03:52;;;;;;;291.70;277.52;;;24.20;99.90;;;;;;5052836;28;20021;-73
2023/09/20 12:06:18;;;;;;;286.38;272.27;;;24.10;99.90;;;;;;5054052;28;20037;-73
2023/09/20 12:08:45;;;;;;;283.77;269.73;;;24.20;99.90;;;;;;5054851;28;20045;-72
2023/09/20 12:11:11;;;;;;;301.23;286.63;;;24.20;99.90;;;;;;5054593;28;20041;-73
2023/09/20 12:13:38;;;;;;;326.13;309.90;;;24.20;99.90;;;;;;5054844;28;20387;-73
2023/09/20 12:16:04;;;;;;;303.17;288.17;;;24.30;99.90;;;;;;5053987;28;20483;-72
2023/09/20 12:18:30;;;;;;;317.00;301.08;;;24.40;99.90;;;;;;5053281;28;20048;-73
2023/09/20 12:20:56;;;;;;;309.05;293.70;;;24.40;99.90;;;;;;5054101;28;20059;-73
2023/09/20 12:23:23;;;;;;;366.20;347.38;;;24.30;99.90;;;;;;5054609;28;20415;-72
2023/09/20 12:25:49;;;;;;;392.67;372.45;;;24.30;99.90;;;;;;5054365;28;20048;-72
2023/09/20 12:28:15;;;;;;;366.65;348.13;;;24.30;99.90;;;;;;5054162;28;20037;-73
2023/09/20 12:30:42;;;;;;;378.58;359.65;;;24.20;99.90;;;;;;5053572;28;20032;-73
2023/09/20 12:33:08;;;;;;;380.42;360.90;;;24.10;99.90;;;;;;5054490;28;20041;-72
2023/09/20 12:35:34;;;;;;;397.75;377.58;;;24.00;99.90;;;;;;5053446;28;20036;-73
2023/09/20 12:38:01;;;;;;;403.35;383.15;;;23.90;99.90;;;;;;5054286;28;20049;-73
2023/09/20 12:40:29;;;;;;;372.05;353.75;;;23.80;99.90;;;;;;5054118;28;20396;-73
2023/09/20 12:42:55;;;;;;;360.50;342.77;;;23.80;99.90;;;;;;5054400;28;20052;-73
2023/09/20 12:45:22;;;;;;;352.20;334.77;;;23.80;99.90;;;;;;5051832;28;20025;-73
2023/09/20 12:47:49;;;;;;;348.73;331.60;;;23.80;99.90;;;;;;5054132;28;20476;-73
2023/09/20 12:50:15;;;;;;;346.92;329.73;;;23.80;99.90;;;;;;5052577;28;20045;-73
2023/09/20 12:52:44;;;;;;;324.23;308.42;;;23.90;99.90;;;;;;5054328;28;20048;-73
2023/09/20 12:55:11;;;;;;;334.10;317.50;;;24.00;99.90;;;;;;5053608;28;20037;-72
2023/09/20 12:57:38;;;;;;;335.80;319.33;;;24.00;99.90;;;;;;5054246;28;20037;-73
2023/09/20 13:00:10;;;;;;;323.90;307.90;;;24.00;99.90;;;;;;5053420;28;20040;-73
2023/09/20 13:02:36;;;;;;;338.33;321.55;;;24.10;99.90;;;;;;5053895;28;20399;-72
2023/09/20 13:05:03;;;;;;;306.50;291.23;;;24.20;99.90;;;;;;5053157;28;20033;-73